SHEM weather

El Mercurio Heliport
Santiago, Santiago Metropolitan Region, Chile

Public forecast

Using degrees Celsius for public forecast. Weather courtesy of forecast.io.

METAR (pilot weather report)

Report is more than 6 hours old.

Closest report is Eulogio Sánchez Airport, 5.1 nm (9.5 km) SSE. Retrieved 2019/09/23 23:00 UTC (9 hours ago):

SCTB 232300Z 25004KT 200V300 CAVOK 18/06 Q1018

TAF (pilot weather forecast)

Closest forecast is Comodoro Arturo Merino Benítez International Airport, 9.6 nm (17.7 km) W. Retrieved 2019/09/24 06:00 UTC (2 hours ago):

TAF SCEL 240419Z 2406/2506 17005KT 8000 NSC TX28/2419Z TN06/2411Z TEMPO 2406/2414 3000 BR BKN005 BECMG 2415/2417 17010KT CAVOK TEMPO 2504/2506 17005KT